sensor_id;sensor_type;location;lat;lon;timestamp;P1;durP1;ratioP1;P2;durP2;ratioP2
28022;SDS011;67403;50.104;8.758;2023-05-17T00:01:01;7.80;;;2.28;;
28022;SDS011;67403;50.104;8.758;2023-05-17T00:03:28;8.55;;;1.90;;
28022;SDS011;67403;50.104;8.758;2023-05-17T00:05:55;5.30;;;1.55;;
28022;SDS011;67403;50.104;8.758;2023-05-17T00:08:21;7.25;;;1.90;;
28022;SDS011;67403;50.104;8.758;2023-05-17T00:10:50;3.78;;;1.60;;
28022;SDS011;67403;50.104;8.758;2023-05-17T00:13:17;2.53;;;1.50;;
28022;SDS011;67403;50.104;8.758;2023-05-17T00:15:44;4.20;;;1.60;;
28022;SDS011;67403;50.104;8.758;2023-05-17T00:18:11;6.88;;;2.10;;
28022;SDS011;67403;50.104;8.758;2023-05-17T00:20:37;2.95;;;1.83;;
28022;SDS011;67403;50.104;8.758;2023-05-17T00:23:04;5.32;;;1.60;;
28022;SDS011;67403;50.104;8.758;2023-05-17T00:25:31;5.32;;;1.88;;
28022;SDS011;67403;50.104;8.758;2023-05-17T00:27:59;3.05;;;1.52;;
28022;SDS011;67403;50.104;8.758;2023-05-17T00:30:26;3.80;;;1.80;;
28022;SDS011;67403;50.104;8.758;2023-05-17T00:32:53;2.60;;;1.67;;
28022;SDS011;67403;50.104;8.758;2023-05-17T00:35:20;3.30;;;1.52;;
28022;SDS011;67403;50.104;8.758;2023-05-17T00:37:47;2.88;;;2.00;;
28022;SDS011;67403;50.104;8.758;2023-05-17T00:40:14;4.25;;;1.73;;
28022;SDS011;67403;50.104;8.758;2023-05-17T00:42:41;4.40;;;1.90;;
28022;SDS011;67403;50.104;8.758;2023-05-17T00:45:10;6.45;;;2.60;;
28022;SDS011;67403;50.104;8.758;2023-05-17T00:47:37;4.85;;;1.90;;
28022;SDS011;67403;50.104;8.758;2023-05-17T00:50:04;6.75;;;1.52;;
28022;SDS011;67403;50.104;8.758;2023-05-17T00:52:32;5.45;;;2.28;;
28022;SDS011;67403;50.104;8.758;2023-05-17T00:54:58;7.35;;;2.38;;
28022;SDS011;67403;50.104;8.758;2023-05-17T00:57:25;4.50;;;1.80;;
28022;SDS011;67403;50.104;8.758;2023-05-17T00:59:54;4.30;;;2.03;;
28022;SDS011;67403;50.104;8.758;2023-05-17T01:02:22;5.10;;;1.50;;
28022;SDS011;67403;50.104;8.758;2023-05-17T01:04:49;5.97;;;2.10;;
28022;SDS011;67403;50.104;8.758;2023-05-17T01:07:16;3.53;;;2.25;;
28022;SDS011;67403;50.104;8.758;2023-05-17T01:09:43;4.53;;;2.60;;
28022;SDS011;67403;50.104;8.758;2023-05-17T01:12:26;7.05;;;2.25;;
28022;SDS011;67403;50.104;8.758;2023-05-17T01:15:05;4.32;;;1.75;;
28022;SDS011;67403;50.104;8.758;2023-05-17T01:17:42;6.50;;;2.42;;
28022;SDS011;67403;50.104;8.758;2023-05-17T01:20:17;3.15;;;1.63;;
28022;SDS011;67403;50.104;8.758;2023-05-17T01:22:50;3.53;;;1.90;;
28022;SDS011;67403;50.104;8.758;2023-05-17T01:25:27;3.80;;;1.88;;
28022;SDS011;67403;50.104;8.758;2023-05-17T01:28:03;3.28;;;1.77;;
28022;SDS011;67403;50.104;8.758;2023-05-17T01:30:31;4.60;;;2.47;;
28022;SDS011;67403;50.104;8.758;2023-05-17T01:33:00;6.07;;;2.38;;
28022;SDS011;67403;50.104;8.758;2023-05-17T01:35:29;7.05;;;3.17;;
28022;SDS011;67403;50.104;8.758;2023-05-17T01:37:56;6.15;;;2.83;;
28022;SDS011;67403;50.104;8.758;2023-05-17T01:40:23;4.53;;;2.35;;
28022;SDS011;67403;50.104;8.758;2023-05-17T01:42:52;4.22;;;2.22;;
28022;SDS011;67403;50.104;8.758;2023-05-17T01:45:25;4.55;;;2.35;;
28022;SDS011;67403;50.104;8.758;2023-05-17T01:47:59;5.53;;;2.70;;
28022;SDS011;67403;50.104;8.758;2023-05-17T01:50:33;6.97;;;2.55;;
28022;SDS011;67403;50.104;8.758;2023-05-17T01:53:04;9.60;;;3.10;;
28022;SDS011;67403;50.104;8.758;2023-05-17T01:55:38;6.57;;;2.65;;
28022;SDS011;67403;50.104;8.758;2023-05-17T01:58:09;6.50;;;2.03;;
28022;SDS011;67403;50.104;8.758;2023-05-17T02:00:39;5.20;;;2.67;;
28022;SDS011;67403;50.104;8.758;2023-05-17T02:03:11;4.05;;;2.28;;
28022;SDS011;67403;50.104;8.758;2023-05-17T02:05:38;10.20;;;2.85;;
28022;SDS011;67403;50.104;8.758;2023-05-17T02:08:05;9.43;;;2.42;;
28022;SDS011;67403;50.104;8.758;2023-05-17T02:10:32;5.15;;;2.30;;
28022;SDS011;67403;50.104;8.758;2023-05-17T02:12:59;9.10;;;2.33;;
28022;SDS011;67403;50.104;8.758;2023-05-17T02:15:26;4.97;;;2.95;;
28022;SDS011;67403;50.104;8.758;2023-05-17T02:17:54;11.48;;;2.75;;
28022;SDS011;67403;50.104;8.758;2023-05-17T02:20:21;8.20;;;2.30;;
28022;SDS011;67403;50.104;8.758;2023-05-17T02:22:48;4.90;;;2.65;;
28022;SDS011;67403;50.104;8.758;2023-05-17T02:25:15;7.38;;;2.42;;
28022;SDS011;67403;50.104;8.758;2023-05-17T02:27:42;5.97;;;2.38;;
28022;SDS011;67403;50.104;8.758;2023-05-17T02:30:09;7.32;;;2.45;;
28022;SDS011;67403;50.104;8.758;2023-05-17T02:32:38;5.68;;;2.63;;
28022;SDS011;67403;50.104;8.758;2023-05-17T02:35:07;5.07;;;2.80;;
28022;SDS011;67403;50.104;8.758;2023-05-17T02:37:34;7.82;;;3.30;;
28022;SDS011;67403;50.104;8.758;2023-05-17T02:40:01;8.32;;;2.75;;
28022;SDS011;67403;50.104;8.758;2023-05-17T02:42:32;5.32;;;2.45;;
28022;SDS011;67403;50.104;8.758;2023-05-17T02:44:59;6.35;;;2.33;;
28022;SDS011;67403;50.104;8.758;2023-05-17T02:47:26;7.75;;;2.53;;
28022;SDS011;67403;50.104;8.758;2023-05-17T02:49:53;8.05;;;2.53;;
28022;SDS011;67403;50.104;8.758;2023-05-17T02:52:21;6.80;;;2.60;;
28022;SDS011;67403;50.104;8.758;2023-05-17T02:54:48;6.18;;;2.50;;
28022;SDS011;67403;50.104;8.758;2023-05-17T02:57:15;7.25;;;2.85;;
28022;SDS011;67403;50.104;8.758;2023-05-17T02:59:42;4.60;;;2.55;;
28022;SDS011;67403;50.104;8.758;2023-05-17T03:02:10;4.40;;;2.40;;
28022;SDS011;67403;50.104;8.758;2023-05-17T03:04:37;8.52;;;2.80;;
28022;SDS011;67403;50.104;8.758;2023-05-17T03:07:04;6.32;;;2.95;;
28022;SDS011;67403;50.104;8.758;2023-05-17T03:09:33;9.30;;;2.53;;
28022;SDS011;67403;50.104;8.758;2023-05-17T03:11:59;6.05;;;2.75;;
28022;SDS011;67403;50.104;8.758;2023-05-17T03:14:27;6.03;;;2.67;;
28022;SDS011;67403;50.104;8.758;2023-05-17T03:16:54;7.30;;;3.22;;
28022;SDS011;67403;50.104;8.758;2023-05-17T03:19:21;4.43;;;2.60;;
28022;SDS011;67403;50.104;8.758;2023-05-17T03:21:48;8.82;;;2.72;;
28022;SDS011;67403;50.104;8.758;2023-05-17T03:24:14;4.25;;;2.38;;
28022;SDS011;67403;50.104;8.758;2023-05-17T03:26:43;6.78;;;2.90;;
28022;SDS011;67403;50.104;8.758;2023-05-17T03:29:10;4.85;;;2.50;;
28022;SDS011;67403;50.104;8.758;2023-05-17T03:31:37;6.03;;;2.80;;
28022;SDS011;67403;50.104;8.758;2023-05-17T03:34:03;9.93;;;3.40;;
28022;SDS011;67403;50.104;8.758;2023-05-17T03:36:31;5.40;;;2.40;;
28022;SDS011;67403;50.104;8.758;2023-05-17T03:38:59;9.40;;;3.03;;
28022;SDS011;67403;50.104;8.758;2023-05-17T03:41:25;9.88;;;3.03;;
28022;SDS011;67403;50.104;8.758;2023-05-17T03:43:54;7.20;;;3.17;;
28022;SDS011;67403;50.104;8.758;2023-05-17T03:46:21;7.35;;;2.90;;
28022;SDS011;67403;50.104;8.758;2023-05-17T03:48:47;6.63;;;2.80;;
28022;SDS011;67403;50.104;8.758;2023-05-17T03:51:14;7.15;;;2.83;;
28022;SDS011;67403;50.104;8.758;2023-05-17T03:53:42;8.95;;;3.28;;
28022;SDS011;67403;50.104;8.758;2023-05-17T03:56:09;7.15;;;2.60;;
28022;SDS011;67403;50.104;8.758;2023-05-17T03:58:36;8.20;;;3.03;;
28022;SDS011;67403;50.104;8.758;2023-05-17T04:01:04;9.05;;;3.72;;
28022;SDS011;67403;50.104;8.758;2023-05-17T04:03:31;12.05;;;3.30;;
28022;SDS011;67403;50.104;8.758;2023-05-17T04:06:02;7.05;;;3.50;;
28022;SDS011;67403;50.104;8.758;2023-05-17T04:08:31;8.60;;;3.03;;
28022;SDS011;67403;50.104;8.758;2023-05-17T04:10:58;4.32;;;2.80;;
28022;SDS011;67403;50.104;8.758;2023-05-17T04:13:29;6.35;;;3.08;;
28022;SDS011;67403;50.104;8.758;2023-05-17T04:15:56;10.80;;;3.00;;
28022;SDS011;67403;50.104;8.758;2023-05-17T04:18:24;5.97;;;3.00;;
28022;SDS011;67403;50.104;8.758;2023-05-17T04:20:52;6.05;;;2.97;;
28022;SDS011;67403;50.104;8.758;2023-05-17T04:23:20;6.03;;;2.85;;
28022;SDS011;67403;50.104;8.758;2023-05-17T04:25:47;7.15;;;3.33;;
28022;SDS011;67403;50.104;8.758;2023-05-17T04:28:14;7.28;;;3.50;;
28022;SDS011;67403;50.104;8.758;2023-05-17T04:30:40;8.13;;;3.22;;
28022;SDS011;67403;50.104;8.758;2023-05-17T04:33:07;8.43;;;3.50;;
28022;SDS011;67403;50.104;8.758;2023-05-17T04:35:37;5.35;;;3.13;;
28022;SDS011;67403;50.104;8.758;2023-05-17T04:38:04;7.47;;;3.30;;
28022;SDS011;67403;50.104;8.758;2023-05-17T04:40:31;6.50;;;3.08;;
28022;SDS011;67403;50.104;8.758;2023-05-17T04:42:58;11.45;;;3.72;;
28022;SDS011;67403;50.104;8.758;2023-05-17T04:45:25;8.30;;;3.20;;
28022;SDS011;67403;50.104;8.758;2023-05-17T04:47:52;10.73;;;3.72;;
28022;SDS011;67403;50.104;8.758;2023-05-17T04:50:20;9.80;;;3.40;;
28022;SDS011;67403;50.104;8.758;2023-05-17T04:52:48;6.72;;;3.17;;
28022;SDS011;67403;50.104;8.758;2023-05-17T04:55:15;9.65;;;3.53;;
28022;SDS011;67403;50.104;8.758;2023-05-17T04:57:41;7.25;;;3.00;;
28022;SDS011;67403;50.104;8.758;2023-05-17T05:00:09;5.63;;;2.45;;
28022;SDS011;67403;50.104;8.758;2023-05-17T05:02:38;7.20;;;2.83;;
28022;SDS011;67403;50.104;8.758;2023-05-17T05:05:05;8.45;;;3.22;;
28022;SDS011;67403;50.104;8.758;2023-05-17T05:07:33;5.88;;;3.08;;
28022;SDS011;67403;50.104;8.758;2023-05-17T05:10:02;4.63;;;2.70;;
28022;SDS011;67403;50.104;8.758;2023-05-17T05:12:29;6.40;;;3.00;;
28022;SDS011;67403;50.104;8.758;2023-05-17T05:14:56;12.20;;;3.05;;
28022;SDS011;67403;50.104;8.758;2023-05-17T05:17:23;7.55;;;2.53;;
28022;SDS011;67403;50.104;8.758;2023-05-17T05:19:49;5.07;;;2.55;;
28022;SDS011;67403;50.104;8.758;2023-05-17T05:22:16;6.68;;;2.40;;
28022;SDS011;67403;50.104;8.758;2023-05-17T05:24:43;7.40;;;2.85;;
28022;SDS011;67403;50.104;8.758;2023-05-17T05:27:11;10.07;;;3.53;;
28022;SDS011;67403;50.104;8.758;2023-05-17T05:29:38;8.88;;;2.55;;
28022;SDS011;67403;50.104;8.758;2023-05-17T05:32:06;10.13;;;3.17;;
28022;SDS011;67403;50.104;8.758;2023-05-17T05:34:33;8.13;;;2.72;;
28022;SDS011;67403;50.104;8.758;2023-05-17T05:37:00;6.97;;;3.30;;
28022;SDS011;67403;50.104;8.758;2023-05-17T05:39:27;5.38;;;2.58;;
28022;SDS011;67403;50.104;8.758;2023-05-17T05:41:54;9.02;;;3.13;;
28022;SDS011;67403;50.104;8.758;2023-05-17T05:44:22;7.95;;;2.90;;
28022;SDS011;67403;50.104;8.758;2023-05-17T05:46:49;6.28;;;2.50;;
28022;SDS011;67403;50.104;8.758;2023-05-17T05:49:16;10.27;;;3.05;;
28022;SDS011;67403;50.104;8.758;2023-05-17T05:51:43;6.18;;;3.20;;
28022;SDS011;67403;50.104;8.758;2023-05-17T05:54:10;8.10;;;3.45;;
28022;SDS011;67403;50.104;8.758;2023-05-17T05:56:37;6.40;;;3.30;;
28022;SDS011;67403;50.104;8.758;2023-05-17T05:59:04;5.78;;;3.13;;
28022;SDS011;67403;50.104;8.758;2023-05-17T06:01:33;5.40;;;2.75;;
28022;SDS011;67403;50.104;8.758;2023-05-17T06:03:59;7.68;;;3.25;;
28022;SDS011;67403;50.104;8.758;2023-05-17T06:06:28;11.23;;;3.75;;
28022;SDS011;67403;50.104;8.758;2023-05-17T06:08:55;8.70;;;3.13;;
28022;SDS011;67403;50.104;8.758;2023-05-17T06:11:22;8.70;;;2.85;;
28022;SDS011;67403;50.104;8.758;2023-05-17T06:13:50;11.35;;;3.30;;
28022;SDS011;67403;50.104;8.758;2023-05-17T06:16:17;6.90;;;3.67;;
28022;SDS011;67403;50.104;8.758;2023-05-17T06:18:46;9.02;;;2.40;;
28022;SDS011;67403;50.104;8.758;2023-05-17T06:21:12;7.43;;;3.05;;
28022;SDS011;67403;50.104;8.758;2023-05-17T06:23:40;8.45;;;3.20;;
28022;SDS011;67403;50.104;8.758;2023-05-17T06:26:07;11.10;;;3.42;;
28022;SDS011;67403;50.104;8.758;2023-05-17T06:28:35;11.93;;;3.60;;
28022;SDS011;67403;50.104;8.758;2023-05-17T06:31:02;10.68;;;3.67;;
28022;SDS011;67403;50.104;8.758;2023-05-17T06:33:29;6.28;;;3.17;;
28022;SDS011;67403;50.104;8.758;2023-05-17T06:35:57;7.53;;;2.60;;
28022;SDS011;67403;50.104;8.758;2023-05-17T06:38:24;7.03;;;2.90;;
28022;SDS011;67403;50.104;8.758;2023-05-17T06:40:51;5.90;;;3.05;;
28022;SDS011;67403;50.104;8.758;2023-05-17T06:43:19;8.98;;;3.17;;
28022;SDS011;67403;50.104;8.758;2023-05-17T06:45:45;9.52;;;3.45;;
28022;SDS011;67403;50.104;8.758;2023-05-17T06:48:12;6.35;;;3.00;;
28022;SDS011;67403;50.104;8.758;2023-05-17T06:50:39;11.05;;;3.40;;
28022;SDS011;67403;50.104;8.758;2023-05-17T06:53:08;9.07;;;3.40;;
28022;SDS011;67403;50.104;8.758;2023-05-17T06:55:35;13.82;;;3.22;;
28022;SDS011;67403;50.104;8.758;2023-05-17T06:58:02;7.15;;;2.83;;
28022;SDS011;67403;50.104;8.758;2023-05-17T07:00:29;8.18;;;3.28;;
28022;SDS011;67403;50.104;8.758;2023-05-17T07:02:55;11.45;;;3.70;;
28022;SDS011;67403;50.104;8.758;2023-05-17T07:05:22;6.82;;;3.25;;
28022;SDS011;67403;50.104;8.758;2023-05-17T07:07:49;10.07;;;3.10;;
28022;SDS011;67403;50.104;8.758;2023-05-17T07:10:18;9.15;;;3.42;;
28022;SDS011;67403;50.104;8.758;2023-05-17T07:12:45;10.07;;;3.22;;
28022;SDS011;67403;50.104;8.758;2023-05-17T07:15:12;7.28;;;2.92;;
28022;SDS011;67403;50.104;8.758;2023-05-17T07:17:39;7.75;;;3.17;;
28022;SDS011;67403;50.104;8.758;2023-05-17T07:20:07;6.70;;;3.35;;
28022;SDS011;67403;50.104;8.758;2023-05-17T07:22:35;10.02;;;3.17;;
28022;SDS011;67403;50.104;8.758;2023-05-17T07:25:02;8.25;;;3.25;;
28022;SDS011;67403;50.104;8.758;2023-05-17T07:27:31;8.98;;;3.35;;
28022;SDS011;67403;50.104;8.758;2023-05-17T07:29:58;11.73;;;3.85;;
28022;SDS011;67403;50.104;8.758;2023-05-17T07:32:25;14.85;;;4.40;;
28022;SDS011;67403;50.104;8.758;2023-05-17T07:34:52;7.07;;;3.30;;
28022;SDS011;67403;50.104;8.758;2023-05-17T07:37:19;9.10;;;3.30;;
28022;SDS011;67403;50.104;8.758;2023-05-17T07:39:46;6.50;;;3.15;;
28022;SDS011;67403;50.104;8.758;2023-05-17T07:42:13;10.25;;;3.58;;
28022;SDS011;67403;50.104;8.758;2023-05-17T07:44:41;5.38;;;2.95;;
28022;SDS011;67403;50.104;8.758;2023-05-17T07:47:08;8.38;;;2.72;;
28022;SDS011;67403;50.104;8.758;2023-05-17T07:49:34;7.15;;;3.15;;
28022;SDS011;67403;50.104;8.758;2023-05-17T07:52:01;6.88;;;3.30;;
28022;SDS011;67403;50.104;8.758;2023-05-17T07:54:29;5.25;;;2.72;;
28022;SDS011;67403;50.104;8.758;2023-05-17T07:56:56;7.50;;;3.10;;
28022;SDS011;67403;50.104;8.758;2023-05-17T07:59:24;9.70;;;3.03;;
28022;SDS011;67403;50.104;8.758;2023-05-17T08:01:52;6.95;;;2.80;;
28022;SDS011;67403;50.104;8.758;2023-05-17T08:04:19;6.10;;;2.47;;
28022;SDS011;67403;50.104;8.758;2023-05-17T08:06:48;11.40;;;6.22;;
28022;SDS011;67403;50.104;8.758;2023-05-17T08:09:15;7.85;;;3.03;;
28022;SDS011;67403;50.104;8.758;2023-05-17T08:11:42;10.52;;;3.97;;
28022;SDS011;67403;50.104;8.758;2023-05-17T08:14:11;7.03;;;2.88;;
28022;SDS011;67403;50.104;8.758;2023-05-17T08:16:39;5.68;;;2.58;;
28022;SDS011;67403;50.104;8.758;2023-05-17T08:19:09;5.45;;;2.53;;
28022;SDS011;67403;50.104;8.758;2023-05-17T08:21:38;9.40;;;3.30;;
28022;SDS011;67403;50.104;8.758;2023-05-17T08:24:05;11.70;;;3.33;;
28022;SDS011;67403;50.104;8.758;2023-05-17T08:26:32;6.72;;;2.38;;
28022;SDS011;67403;50.104;8.758;2023-05-17T08:29:00;6.45;;;2.08;;
28022;SDS011;67403;50.104;8.758;2023-05-17T08:31:27;5.05;;;2.42;;
28022;SDS011;67403;50.104;8.758;2023-05-17T08:33:54;6.53;;;3.05;;
28022;SDS011;67403;50.104;8.758;2023-05-17T08:36:22;6.07;;;2.30;;
28022;SDS011;67403;50.104;8.758;2023-05-17T08:38:49;12.57;;;4.68;;
28022;SDS011;67403;50.104;8.758;2023-05-17T08:41:16;14.63;;;4.63;;
28022;SDS011;67403;50.104;8.758;2023-05-17T08:43:45;6.90;;;2.50;;
28022;SDS011;67403;50.104;8.758;2023-05-17T08:46:12;8.60;;;2.35;;
28022;SDS011;67403;50.104;8.758;2023-05-17T08:48:41;8.15;;;2.42;;
28022;SDS011;67403;50.104;8.758;2023-05-17T08:51:10;6.45;;;2.47;;
28022;SDS011;67403;50.104;8.758;2023-05-17T08:53:38;6.95;;;2.78;;
28022;SDS011;67403;50.104;8.758;2023-05-17T08:56:06;7.55;;;3.63;;
28022;SDS011;67403;50.104;8.758;2023-05-17T08:58:37;7.28;;;2.60;;
28022;SDS011;67403;50.104;8.758;2023-05-17T09:01:06;3.78;;;2.15;;
28022;SDS011;67403;50.104;8.758;2023-05-17T09:03:34;5.80;;;2.65;;
28022;SDS011;67403;50.104;8.758;2023-05-17T09:06:01;9.70;;;3.63;;
28022;SDS011;67403;50.104;8.758;2023-05-17T09:08:28;8.57;;;2.47;;
28022;SDS011;67403;50.104;8.758;2023-05-17T09:10:58;5.20;;;2.90;;
28022;SDS011;67403;50.104;8.758;2023-05-17T09:13:25;3.88;;;2.33;;
28022;SDS011;67403;50.104;8.758;2023-05-17T09:15:52;6.35;;;2.67;;
28022;SDS011;67403;50.104;8.758;2023-05-17T09:18:27;3.20;;;2.25;;
28022;SDS011;67403;50.104;8.758;2023-05-17T09:20:55;7.80;;;2.47;;
28022;SDS011;67403;50.104;8.758;2023-05-17T09:23:29;6.38;;;2.85;;
28022;SDS011;67403;50.104;8.758;2023-05-17T09:26:03;7.55;;;3.22;;
28022;SDS011;67403;50.104;8.758;2023-05-17T09:28:35;6.90;;;2.60;;
28022;SDS011;67403;50.104;8.758;2023-05-17T09:31:04;6.95;;;2.63;;
28022;SDS011;67403;50.104;8.758;2023-05-17T09:33:32;5.57;;;2.38;;
28022;SDS011;67403;50.104;8.758;2023-05-17T09:35:59;5.30;;;2.30;;
28022;SDS011;67403;50.104;8.758;2023-05-17T09:38:27;5.60;;;2.65;;
28022;SDS011;67403;50.104;8.758;2023-05-17T09:40:55;5.00;;;2.25;;
28022;SDS011;67403;50.104;8.758;2023-05-17T09:43:23;9.90;;;2.50;;
28022;SDS011;67403;50.104;8.758;2023-05-17T09:45:54;5.50;;;2.17;;
28022;SDS011;67403;50.104;8.758;2023-05-17T09:48:24;8.40;;;3.45;;
28022;SDS011;67403;50.104;8.758;2023-05-17T09:50:52;8.32;;;3.40;;
28022;SDS011;67403;50.104;8.758;2023-05-17T09:53:23;6.95;;;2.03;;
28022;SDS011;67403;50.104;8.758;2023-05-17T09:55:51;5.40;;;3.03;;
28022;SDS011;67403;50.104;8.758;2023-05-17T09:58:20;9.18;;;2.30;;
28022;SDS011;67403;50.104;8.758;2023-05-17T10:00:50;4.53;;;2.20;;
28022;SDS011;67403;50.104;8.758;2023-05-17T10:03:19;12.05;;;2.78;;
28022;SDS011;67403;50.104;8.758;2023-05-17T10:05:48;6.43;;;2.17;;
28022;SDS011;67403;50.104;8.758;2023-05-17T10:08:18;7.85;;;2.80;;
28022;SDS011;67403;50.104;8.758;2023-05-17T10:10:50;12.13;;;4.90;;
28022;SDS011;67403;50.104;8.758;2023-05-17T10:13:20;4.55;;;2.80;;
28022;SDS011;67403;50.104;8.758;2023-05-17T10:15:51;7.65;;;3.65;;
28022;SDS011;67403;50.104;8.758;2023-05-17T10:18:19;3.30;;;2.50;;
28022;SDS011;67403;50.104;8.758;2023-05-17T10:20:47;7.20;;;2.50;;
28022;SDS011;67403;50.104;8.758;2023-05-17T10:23:14;9.63;;;3.70;;
28022;SDS011;67403;50.104;8.758;2023-05-17T10:25:43;6.18;;;3.10;;
28022;SDS011;67403;50.104;8.758;2023-05-17T10:28:10;10.00;;;2.97;;
28022;SDS011;67403;50.104;8.758;2023-05-17T10:30:39;8.02;;;2.90;;
28022;SDS011;67403;50.104;8.758;2023-05-17T10:33:08;7.63;;;2.72;;
28022;SDS011;67403;50.104;8.758;2023-05-17T10:35:38;5.65;;;2.60;;
28022;SDS011;67403;50.104;8.758;2023-05-17T10:38:06;4.40;;;2.28;;
28022;SDS011;67403;50.104;8.758;2023-05-17T10:40:33;6.10;;;2.42;;
28022;SDS011;67403;50.104;8.758;2023-05-17T10:43:01;5.40;;;2.38;;
28022;SDS011;67403;50.104;8.758;2023-05-17T10:45:30;6.20;;;2.90;;
28022;SDS011;67403;50.104;8.758;2023-05-17T10:47:57;6.18;;;3.40;;
28022;SDS011;67403;50.104;8.758;2023-05-17T10:50:31;4.68;;;2.50;;
28022;SDS011;67403;50.104;8.758;2023-05-17T10:52:58;7.65;;;2.38;;
28022;SDS011;67403;50.104;8.758;2023-05-17T10:55:33;3.78;;;1.83;;
28022;SDS011;67403;50.104;8.758;2023-05-17T10:58:07;3.50;;;2.17;;
28022;SDS011;67403;50.104;8.758;2023-05-17T11:00:42;8.90;;;3.33;;
28022;SDS011;67403;50.104;8.758;2023-05-17T11:03:10;11.65;;;6.55;;
28022;SDS011;67403;50.104;8.758;2023-05-17T11:05:41;11.73;;;5.43;;
28022;SDS011;67403;50.104;8.758;2023-05-17T11:08:13;9.35;;;3.60;;
28022;SDS011;67403;50.104;8.758;2023-05-17T11:13:42;6.65;;;2.15;;
28022;SDS011;67403;50.104;8.758;2023-05-17T11:16:12;7.15;;;2.67;;
28022;SDS011;67403;50.104;8.758;2023-05-17T11:18:47;3.65;;;2.33;;
28022;SDS011;67403;50.104;8.758;2023-05-17T11:21:16;5.25;;;2.20;;
28022;SDS011;67403;50.104;8.758;2023-05-17T11:23:44;6.18;;;3.17;;
28022;SDS011;67403;50.104;8.758;2023-05-17T11:26:16;9.82;;;3.53;;
28022;SDS011;67403;50.104;8.758;2023-05-17T11:28:46;4.63;;;2.50;;
28022;SDS011;67403;50.104;8.758;2023-05-17T11:31:13;5.90;;;2.47;;
28022;SDS011;67403;50.104;8.758;2023-05-17T11:33:41;4.78;;;2.13;;
28022;SDS011;67403;50.104;8.758;2023-05-17T11:36:14;9.30;;;3.15;;
28022;SDS011;67403;50.104;8.758;2023-05-17T11:38:48;4.28;;;2.10;;
28022;SDS011;67403;50.104;8.758;2023-05-17T11:41:17;6.53;;;2.08;;
28022;SDS011;67403;50.104;8.758;2023-05-17T11:43:46;5.57;;;1.73;;
28022;SDS011;67403;50.104;8.758;2023-05-17T11:46:20;5.15;;;2.00;;
28022;SDS011;67403;50.104;8.758;2023-05-17T11:48:51;6.15;;;2.58;;
28022;SDS011;67403;50.104;8.758;2023-05-17T11:51:19;3.45;;;1.95;;
28022;SDS011;67403;50.104;8.758;2023-05-17T11:53:47;8.25;;;2.70;;
28022;SDS011;67403;50.104;8.758;2023-05-17T11:56:14;5.03;;;2.13;;
28022;SDS011;67403;50.104;8.758;2023-05-17T11:58:42;5.80;;;2.10;;
28022;SDS011;67403;50.104;8.758;2023-05-17T12:01:09;3.88;;;2.30;;
28022;SDS011;67403;50.104;8.758;2023-05-17T12:03:36;6.93;;;2.17;;
28022;SDS011;67403;50.104;8.758;2023-05-17T12:06:06;5.88;;;2.00;;
28022;SDS011;67403;50.104;8.758;2023-05-17T12:08:36;4.13;;;1.90;;
28022;SDS011;67403;50.104;8.758;2023-05-17T12:11:05;3.25;;;1.52;;
28022;SDS011;67403;50.104;8.758;2023-05-17T12:13:32;3.95;;;1.58;;
28022;SDS011;67403;50.104;8.758;2023-05-17T12:16:00;3.97;;;1.80;;
28022;SDS011;67403;50.104;8.758;2023-05-17T12:18:33;6.38;;;1.60;;
28022;SDS011;67403;50.104;8.758;2023-05-17T12:21:01;2.63;;;1.42;;
28022;SDS011;67403;50.104;8.758;2023-05-17T12:23:29;4.40;;;1.90;;
28022;SDS011;67403;50.104;8.758;2023-05-17T12:26:05;4.35;;;2.42;;
28022;SDS011;67403;50.104;8.758;2023-05-17T12:28:34;4.63;;;1.90;;
28022;SDS011;67403;50.104;8.758;2023-05-17T12:31:03;6.15;;;1.30;;
28022;SDS011;67403;50.104;8.758;2023-05-17T12:33:33;3.58;;;1.60;;
28022;SDS011;67403;50.104;8.758;2023-05-17T12:36:03;3.08;;;1.83;;
28022;SDS011;67403;50.104;8.758;2023-05-17T12:38:31;4.70;;;2.00;;
28022;SDS011;67403;50.104;8.758;2023-05-17T12:41:00;4.00;;;1.90;;
28022;SDS011;67403;50.104;8.758;2023-05-17T12:43:29;6.95;;;1.90;;
28022;SDS011;67403;50.104;8.758;2023-05-17T12:46:01;6.55;;;1.70;;
28022;SDS011;67403;50.104;8.758;2023-05-17T12:48:31;3.97;;;1.77;;
28022;SDS011;67403;50.104;8.758;2023-05-17T12:51:04;3.58;;;1.75;;
28022;SDS011;67403;50.104;8.758;2023-05-17T12:53:34;3.55;;;1.75;;
28022;SDS011;67403;50.104;8.758;2023-05-17T12:56:02;4.03;;;2.00;;
28022;SDS011;67403;50.104;8.758;2023-05-17T12:58:31;4.88;;;1.85;;
28022;SDS011;67403;50.104;8.758;2023-05-17T13:00:59;4.32;;;1.95;;
28022;SDS011;67403;50.104;8.758;2023-05-17T13:03:26;4.50;;;1.90;;
28022;SDS011;67403;50.104;8.758;2023-05-17T13:08:38;5.00;;;2.47;;
28022;SDS011;67403;50.104;8.758;2023-05-17T13:11:08;6.80;;;1.92;;
28022;SDS011;67403;50.104;8.758;2023-05-17T13:13:37;8.73;;;1.92;;
28022;SDS011;67403;50.104;8.758;2023-05-17T13:16:05;2.35;;;1.35;;
28022;SDS011;67403;50.104;8.758;2023-05-17T13:18:48;6.13;;;2.13;;
28022;SDS011;67403;50.104;8.758;2023-05-17T13:21:16;3.67;;;2.65;;
28022;SDS011;67403;50.104;8.758;2023-05-17T13:23:45;4.30;;;1.58;;
28022;SDS011;67403;50.104;8.758;2023-05-17T13:26:12;3.85;;;1.50;;
28022;SDS011;67403;50.104;8.758;2023-05-17T13:28:41;4.07;;;1.67;;
28022;SDS011;67403;50.104;8.758;2023-05-17T13:31:08;2.38;;;1.38;;
28022;SDS011;67403;50.104;8.758;2023-05-17T13:33:35;4.32;;;1.90;;
28022;SDS011;67403;50.104;8.758;2023-05-17T13:36:02;3.35;;;1.73;;
28022;SDS011;67403;50.104;8.758;2023-05-17T13:38:29;5.38;;;1.60;;
28022;SDS011;67403;50.104;8.758;2023-05-17T13:40:56;7.10;;;1.80;;
28022;SDS011;67403;50.104;8.758;2023-05-17T13:43:23;5.03;;;2.00;;
28022;SDS011;67403;50.104;8.758;2023-05-17T13:45:51;5.60;;;2.40;;
28022;SDS011;67403;50.104;8.758;2023-05-17T13:48:21;5.53;;;1.88;;
28022;SDS011;67403;50.104;8.758;2023-05-17T13:50:48;4.90;;;1.33;;
28022;SDS011;67403;50.104;8.758;2023-05-17T13:53:16;5.45;;;1.95;;
28022;SDS011;67403;50.104;8.758;2023-05-17T13:55:43;2.38;;;1.33;;
28022;SDS011;67403;50.104;8.758;2023-05-17T13:58:10;6.65;;;1.50;;
28022;SDS011;67403;50.104;8.758;2023-05-17T14:00:38;4.55;;;1.60;;
28022;SDS011;67403;50.104;8.758;2023-05-17T14:03:09;5.97;;;1.65;;
28022;SDS011;67403;50.104;8.758;2023-05-17T14:05:37;5.03;;;1.50;;
28022;SDS011;67403;50.104;8.758;2023-05-17T14:08:04;4.15;;;1.70;;
28022;SDS011;67403;50.104;8.758;2023-05-17T14:10:33;4.55;;;1.88;;
28022;SDS011;67403;50.104;8.758;2023-05-17T14:13:00;7.72;;;2.35;;
28022;SDS011;67403;50.104;8.758;2023-05-17T14:15:27;4.88;;;1.58;;
28022;SDS011;67403;50.104;8.758;2023-05-17T14:17:54;3.83;;;1.60;;
28022;SDS011;67403;50.104;8.758;2023-05-17T14:20:22;4.93;;;1.67;;
28022;SDS011;67403;50.104;8.758;2023-05-17T14:22:49;4.72;;;1.77;;
28022;SDS011;67403;50.104;8.758;2023-05-17T14:25:16;5.25;;;1.80;;
28022;SDS011;67403;50.104;8.758;2023-05-17T14:27:43;7.97;;;1.90;;
28022;SDS011;67403;50.104;8.758;2023-05-17T14:30:10;3.47;;;1.80;;
28022;SDS011;67403;50.104;8.758;2023-05-17T14:32:38;7.32;;;2.08;;
28022;SDS011;67403;50.104;8.758;2023-05-17T14:35:06;2.80;;;1.38;;
28022;SDS011;67403;50.104;8.758;2023-05-17T14:37:35;3.47;;;1.50;;
28022;SDS011;67403;50.104;8.758;2023-05-17T14:40:02;4.28;;;1.60;;
28022;SDS011;67403;50.104;8.758;2023-05-17T14:42:29;2.95;;;1.52;;
28022;SDS011;67403;50.104;8.758;2023-05-17T14:44:56;6.63;;;1.65;;
28022;SDS011;67403;50.104;8.758;2023-05-17T14:47:23;5.80;;;1.70;;
28022;SDS011;67403;50.104;8.758;2023-05-17T14:49:50;4.10;;;1.75;;
28022;SDS011;67403;50.104;8.758;2023-05-17T14:52:17;6.63;;;2.30;;
28022;SDS011;67403;50.104;8.758;2023-05-17T14:54:45;4.15;;;1.80;;
28022;SDS011;67403;50.104;8.758;2023-05-17T14:57:13;7.28;;;2.40;;